sensor_id;sensor_type;location;lat;lon;timestamp;pressure;altitude;pressure_sealevel;temperature;humidity
38022;BME280;23832;43.216;27.946;2023-04-10T00:00:54;101035.81;;;12.94;55.05
38022;BME280;23832;43.216;27.946;2023-04-10T00:02:58;101034.34;;;12.92;55.27
38022;BME280;23832;43.216;27.946;2023-04-10T00:05:01;101030.34;;;13.11;54.61
38022;BME280;23832;43.216;27.946;2023-04-10T00:07:03;101033.66;;;13.13;54.61
38022;BME280;23832;43.216;27.946;2023-04-10T00:09:05;101022.78;;;13.07;54.65
38022;BME280;23832;43.216;27.946;2023-04-10T00:11:07;101033.38;;;13.07;54.43
38022;BME280;23832;43.216;27.946;2023-04-10T00:13:08;101030.06;;;12.68;54.78
38022;BME280;23832;43.216;27.946;2023-04-10T00:15:10;101028.75;;;12.64;55.08
38022;BME280;23832;43.216;27.946;2023-04-10T00:17:12;101020.19;;;12.62;55.29
38022;BME280;23832;43.216;27.946;2023-04-10T00:19:13;101026.22;;;12.93;54.58
38022;BME280;23832;43.216;27.946;2023-04-10T00:21:16;101021.41;;;12.97;54.29
38022;BME280;23832;43.216;27.946;2023-04-10T00:23:18;100939.81;;;12.25;54.49
38022;BME280;23832;43.216;27.946;2023-04-10T00:25:20;101012.72;;;12.88;53.88
38022;BME280;23832;43.216;27.946;2023-04-10T00:27:22;101012.97;;;12.93;53.65
38022;BME280;23832;43.216;27.946;2023-04-10T00:29:24;101005.34;;;12.98;53.74
38022;BME280;23832;43.216;27.946;2023-04-10T00:31:25;101012.06;;;12.86;53.74
38022;BME280;23832;43.216;27.946;2023-04-10T00:33:27;101003.63;;;12.68;53.90
38022;BME280;23832;43.216;27.946;2023-04-10T00:35:28;101005.06;;;12.47;54.65
38022;BME280;23832;43.216;27.946;2023-04-10T00:37:32;101009.56;;;12.70;53.59
38022;BME280;23832;43.216;27.946;2023-04-10T00:39:34;101001.63;;;12.85;53.22
38022;BME280;23832;43.216;27.946;2023-04-10T00:41:35;100994.72;;;12.84;53.82
38022;BME280;23832;43.216;27.946;2023-04-10T00:43:37;100993.00;;;12.91;53.36
38022;BME280;23832;43.216;27.946;2023-04-10T00:45:39;100991.78;;;12.78;52.83
38022;BME280;23832;43.216;27.946;2023-04-10T00:47:41;100988.22;;;12.71;53.57
38022;BME280;23832;43.216;27.946;2023-04-10T00:49:43;100997.78;;;13.10;52.61
38022;BME280;23832;43.216;27.946;2023-04-10T00:51:45;100982.03;;;12.94;52.24
38022;BME280;23832;43.216;27.946;2023-04-10T00:53:48;100979.31;;;12.87;52.13
38022;BME280;23832;43.216;27.946;2023-04-10T00:55:51;100981.72;;;12.74;52.83
38022;BME280;23832;43.216;27.946;2023-04-10T00:57:53;100982.53;;;12.97;52.09
38022;BME280;23832;43.216;27.946;2023-04-10T00:59:55;100981.44;;;13.06;52.23
38022;BME280;23832;43.216;27.946;2023-04-10T01:01:57;100977.75;;;12.78;52.64
38022;BME280;23832;43.216;27.946;2023-04-10T01:03:59;100970.47;;;13.10;51.92
38022;BME280;23832;43.216;27.946;2023-04-10T01:06:02;100969.75;;;13.01;52.04
38022;BME280;23832;43.216;27.946;2023-04-10T01:08:07;100963.50;;;12.79;52.73
38022;BME280;23832;43.216;27.946;2023-04-10T01:10:19;100969.38;;;12.89;52.26
38022;BME280;23832;43.216;27.946;2023-04-10T01:12:26;100971.31;;;12.95;52.17
38022;BME280;23832;43.216;27.946;2023-04-10T01:14:36;100971.88;;;13.05;51.54
38022;BME280;23832;43.216;27.946;2023-04-10T01:16:44;100969.38;;;12.89;52.47
38022;BME280;23832;43.216;27.946;2023-04-10T01:18:49;100974.09;;;12.79;52.45
38022;BME280;23832;43.216;27.946;2023-04-10T01:20:54;100974.84;;;13.02;52.39
38022;BME280;23832;43.216;27.946;2023-04-10T01:23:08;100969.41;;;13.04;52.24
38022;BME280;23832;43.216;27.946;2023-04-10T01:25:36;100965.06;;;12.88;52.47
38022;BME280;23832;43.216;27.946;2023-04-10T01:27:39;100974.28;;;12.77;52.77
38022;BME280;23832;43.216;27.946;2023-04-10T01:29:46;100970.97;;;12.75;52.68
38022;BME280;23832;43.216;27.946;2023-04-10T01:31:53;100975.31;;;13.06;51.98
38022;BME280;23832;43.216;27.946;2023-04-10T01:33:59;100971.94;;;12.97;52.37
38022;BME280;23832;43.216;27.946;2023-04-10T01:36:03;100970.28;;;13.11;51.65
38022;BME280;23832;43.216;27.946;2023-04-10T01:38:06;100965.94;;;13.03;51.97
38022;BME280;23832;43.216;27.946;2023-04-10T01:40:09;100965.94;;;13.03;51.82
38022;BME280;23832;43.216;27.946;2023-04-10T01:42:12;100968.72;;;13.25;51.43
38022;BME280;23832;43.216;27.946;2023-04-10T01:44:15;100966.44;;;13.22;51.07
38022;BME280;23832;43.216;27.946;2023-04-10T01:46:20;100961.06;;;13.30;51.61
38022;BME280;23832;43.216;27.946;2023-04-10T01:48:22;100968.00;;;13.31;51.45
38022;BME280;23832;43.216;27.946;2023-04-10T01:50:24;100965.59;;;13.36;51.19
38022;BME280;23832;43.216;27.946;2023-04-10T01:52:27;100964.19;;;13.11;51.64
38022;BME280;23832;43.216;27.946;2023-04-10T01:54:30;100885.63;;;12.21;52.44
38022;BME280;23832;43.216;27.946;2023-04-10T01:56:32;100964.66;;;13.14;52.12
38022;BME280;23832;43.216;27.946;2023-04-10T01:58:35;100954.00;;;12.85;52.57
38022;BME280;23832;43.216;27.946;2023-04-10T02:00:37;100961.09;;;13.07;52.66
38022;BME280;23832;43.216;27.946;2023-04-10T02:02:40;100953.34;;;13.05;52.46
38022;BME280;23832;43.216;27.946;2023-04-10T02:04:42;100948.78;;;13.14;52.75
38022;BME280;23832;43.216;27.946;2023-04-10T02:06:47;100946.94;;;13.15;52.80
38022;BME280;23832;43.216;27.946;2023-04-10T02:08:53;100954.19;;;13.21;52.89
38022;BME280;23832;43.216;27.946;2023-04-10T02:10:57;100958.16;;;13.17;52.69
38022;BME280;23832;43.216;27.946;2023-04-10T02:13:04;100951.03;;;13.02;53.80
38022;BME280;23832;43.216;27.946;2023-04-10T02:15:06;100953.84;;;12.86;54.53
38022;BME280;23832;43.216;27.946;2023-04-10T02:17:09;100949.31;;;12.95;54.34
38022;BME280;23832;43.216;27.946;2023-04-10T02:19:16;100953.25;;;13.14;53.74
38022;BME280;23832;43.216;27.946;2023-04-10T02:21:19;100956.25;;;13.11;54.36
38022;BME280;23832;43.216;27.946;2023-04-10T02:23:21;100953.88;;;13.16;54.69
38022;BME280;23832;43.216;27.946;2023-04-10T02:25:23;100949.69;;;13.06;54.95
38022;BME280;23832;43.216;27.946;2023-04-10T02:27:28;100953.13;;;12.92;55.28
38022;BME280;23832;43.216;27.946;2023-04-10T02:29:30;100956.44;;;12.94;55.08
38022;BME280;23832;43.216;27.946;2023-04-10T02:31:32;100945.09;;;13.00;54.94
38022;BME280;23832;43.216;27.946;2023-04-10T02:33:34;100949.56;;;13.00;55.17
38022;BME280;23832;43.216;27.946;2023-04-10T02:35:37;100942.47;;;13.15;54.53
38022;BME280;23832;43.216;27.946;2023-04-10T02:37:39;100948.22;;;12.52;56.80
38022;BME280;23832;43.216;27.946;2023-04-10T02:39:41;100947.16;;;12.75;56.32
38022;BME280;23832;43.216;27.946;2023-04-10T02:41:43;100948.97;;;13.13;55.66
38022;BME280;23832;43.216;27.946;2023-04-10T02:43:45;100950.72;;;13.35;55.31
38022;BME280;23832;43.216;27.946;2023-04-10T02:45:47;100941.84;;;13.13;55.56
38022;BME280;23832;43.216;27.946;2023-04-10T02:47:48;100951.44;;;13.14;56.18
38022;BME280;23832;43.216;27.946;2023-04-10T02:49:50;100942.53;;;12.92;57.17
38022;BME280;23832;43.216;27.946;2023-04-10T02:51:53;100951.78;;;12.59;58.58
38022;BME280;23832;43.216;27.946;2023-04-10T02:53:55;100952.00;;;12.72;58.20
38022;BME280;23832;43.216;27.946;2023-04-10T02:55:57;100944.66;;;12.97;58.03
38022;BME280;23832;43.216;27.946;2023-04-10T02:57:58;100947.09;;;13.21;56.99
38022;BME280;23832;43.216;27.946;2023-04-10T03:00:00;100943.28;;;12.86;57.79
38022;BME280;23832;43.216;27.946;2023-04-10T03:02:03;100937.44;;;13.05;57.44
38022;BME280;23832;43.216;27.946;2023-04-10T03:04:06;100930.91;;;13.31;56.98
38022;BME280;23832;43.216;27.946;2023-04-10T03:06:08;100933.44;;;13.10;57.94
38022;BME280;23832;43.216;27.946;2023-04-10T03:08:11;100931.41;;;13.12;58.23
38022;BME280;23832;43.216;27.946;2023-04-10T03:10:13;100931.38;;;12.82;59.36
38022;BME280;23832;43.216;27.946;2023-04-10T03:12:15;100932.34;;;12.66;60.51
38022;BME280;23832;43.216;27.946;2023-04-10T03:14:17;100935.06;;;13.11;60.56
38022;BME280;23832;43.216;27.946;2023-04-10T03:16:19;100929.22;;;13.00;60.22
38022;BME280;23832;43.216;27.946;2023-04-10T03:18:20;100929.78;;;13.11;60.96
38022;BME280;23832;43.216;27.946;2023-04-10T03:20:22;100925.56;;;13.01;61.39
38022;BME280;23832;43.216;27.946;2023-04-10T03:22:24;100926.75;;;12.99;62.06
38022;BME280;23832;43.216;27.946;2023-04-10T03:24:28;100924.75;;;12.86;63.42
38022;BME280;23832;43.216;27.946;2023-04-10T03:26:29;100926.47;;;12.94;63.03
38022;BME280;23832;43.216;27.946;2023-04-10T03:28:31;100921.47;;;12.99;63.88
38022;BME280;23832;43.216;27.946;2023-04-10T03:30:35;100922.94;;;12.87;64.20
38022;BME280;23832;43.216;27.946;2023-04-10T03:32:37;100924.19;;;12.91;64.30
38022;BME280;23832;43.216;27.946;2023-04-10T03:34:41;100915.47;;;13.20;62.86
38022;BME280;23832;43.216;27.946;2023-04-10T03:36:42;100924.41;;;13.04;63.68
38022;BME280;23832;43.216;27.946;2023-04-10T03:38:45;100923.75;;;13.02;63.65
38022;BME280;23832;43.216;27.946;2023-04-10T03:40:48;100925.50;;;12.95;64.94
38022;BME280;23832;43.216;27.946;2023-04-10T03:42:50;100921.19;;;13.08;64.83
38022;BME280;23832;43.216;27.946;2023-04-10T03:44:52;100917.94;;;13.36;64.21
38022;BME280;23832;43.216;27.946;2023-04-10T03:46:54;100911.44;;;13.39;62.72
38022;BME280;23832;43.216;27.946;2023-04-10T03:48:55;100911.81;;;13.35;63.48
38022;BME280;23832;43.216;27.946;2023-04-10T03:50:57;100907.53;;;13.34;65.46
38022;BME280;23832;43.216;27.946;2023-04-10T03:52:59;100908.97;;;13.52;64.87
38022;BME280;23832;43.216;27.946;2023-04-10T03:55:00;100904.78;;;13.57;64.90
38022;BME280;23832;43.216;27.946;2023-04-10T03:57:04;100906.03;;;13.47;66.32
38022;BME280;23832;43.216;27.946;2023-04-10T03:59:05;100907.59;;;13.56;64.50
38022;BME280;23832;43.216;27.946;2023-04-10T04:01:07;100914.41;;;13.65;66.13
38022;BME280;23832;43.216;27.946;2023-04-10T04:03:09;100916.09;;;13.66;65.35
38022;BME280;23832;43.216;27.946;2023-04-10T04:05:10;100920.28;;;13.97;63.76
38022;BME280;23832;43.216;27.946;2023-04-10T04:07:12;100914.97;;;13.75;65.08
38022;BME280;23832;43.216;27.946;2023-04-10T04:09:14;100926.53;;;13.89;64.81
38022;BME280;23832;43.216;27.946;2023-04-10T04:11:15;100920.28;;;13.97;63.83
38022;BME280;23832;43.216;27.946;2023-04-10T04:13:18;100923.88;;;14.10;62.99
38022;BME280;23832;43.216;27.946;2023-04-10T04:15:20;100920.47;;;13.95;64.74
38022;BME280;23832;43.216;27.946;2023-04-10T04:17:22;100921.63;;;14.07;63.62
38022;BME280;23832;43.216;27.946;2023-04-10T04:19:24;100927.50;;;14.24;62.96
38022;BME280;23832;43.216;27.946;2023-04-10T04:21:26;100915.75;;;14.12;63.10
38022;BME280;23832;43.216;27.946;2023-04-10T04:23:27;100924.25;;;14.29;62.22
38022;BME280;23832;43.216;27.946;2023-04-10T04:25:29;100924.91;;;14.31;62.04
38022;BME280;23832;43.216;27.946;2023-04-10T04:27:31;100920.38;;;14.46;61.04
38022;BME280;23832;43.216;27.946;2023-04-10T04:29:35;100921.59;;;14.29;61.12
38022;BME280;23832;43.216;27.946;2023-04-10T04:31:36;100919.91;;;14.00;61.85
38022;BME280;23832;43.216;27.946;2023-04-10T04:33:38;100926.84;;;14.01;62.28
38022;BME280;23832;43.216;27.946;2023-04-10T04:35:40;100918.03;;;14.15;61.69
38022;BME280;23832;43.216;27.946;2023-04-10T04:37:41;100924.06;;;14.09;61.48
38022;BME280;23832;43.216;27.946;2023-04-10T04:39:43;100922.31;;;14.16;61.16
38022;BME280;23832;43.216;27.946;2023-04-10T04:41:44;100927.84;;;14.00;61.99
38022;BME280;23832;43.216;27.946;2023-04-10T04:43:46;100928.00;;;14.13;61.56
38022;BME280;23832;43.216;27.946;2023-04-10T04:45:49;100923.72;;;14.12;61.24
38022;BME280;23832;43.216;27.946;2023-04-10T04:47:51;100917.59;;;14.11;61.45
38022;BME280;23832;43.216;27.946;2023-04-10T04:49:53;100921.44;;;14.30;60.70
38022;BME280;23832;43.216;27.946;2023-04-10T04:51:54;100920.09;;;14.19;60.62
38022;BME280;23832;43.216;27.946;2023-04-10T04:53:56;100917.44;;;14.19;60.36
38022;BME280;23832;43.216;27.946;2023-04-10T04:55:58;100914.94;;;14.33;59.90
38022;BME280;23832;43.216;27.946;2023-04-10T04:58:00;100820.38;;;13.54;60.54
38022;BME280;23832;43.216;27.946;2023-04-10T05:00:02;100915.22;;;14.02;60.97
38022;BME280;23832;43.216;27.946;2023-04-10T05:02:05;100909.47;;;14.19;60.22
38022;BME280;23832;43.216;27.946;2023-04-10T05:04:07;100912.78;;;14.43;59.46
38022;BME280;23832;43.216;27.946;2023-04-10T05:06:08;100911.16;;;14.20;60.00
38022;BME280;23832;43.216;27.946;2023-04-10T05:08:10;100912.41;;;14.25;60.32
38022;BME280;23832;43.216;27.946;2023-04-10T05:10:12;100915.19;;;14.16;60.26
38022;BME280;23832;43.216;27.946;2023-04-10T05:12:14;100921.88;;;14.34;59.90
38022;BME280;23832;43.216;27.946;2023-04-10T05:14:16;100929.88;;;14.62;59.00
38022;BME280;23832;43.216;27.946;2023-04-10T05:16:18;100930.00;;;14.47;59.53
38022;BME280;23832;43.216;27.946;2023-04-10T05:18:21;100925.31;;;14.49;59.61
38022;BME280;23832;43.216;27.946;2023-04-10T05:20:23;100928.50;;;14.44;59.52
38022;BME280;23832;43.216;27.946;2023-04-10T05:22:26;100920.84;;;14.35;59.66
38022;BME280;23832;43.216;27.946;2023-04-10T05:24:28;100921.63;;;14.50;59.23
38022;BME280;23832;43.216;27.946;2023-04-10T05:26:30;100927.81;;;14.57;58.60
38022;BME280;23832;43.216;27.946;2023-04-10T05:28:32;100926.63;;;14.38;58.91
38022;BME280;23832;43.216;27.946;2023-04-10T05:30:33;100934.44;;;14.46;58.79
38022;BME280;23832;43.216;27.946;2023-04-10T05:32:36;100923.19;;;14.44;58.69
38022;BME280;23832;43.216;27.946;2023-04-10T05:34:39;100927.69;;;14.23;59.23
38022;BME280;23832;43.216;27.946;2023-04-10T05:36:41;100935.34;;;14.82;58.10
38022;BME280;23832;43.216;27.946;2023-04-10T05:38:43;100924.84;;;14.67;58.06
38022;BME280;23832;43.216;27.946;2023-04-10T05:40:44;100921.06;;;14.83;57.72
38022;BME280;23832;43.216;27.946;2023-04-10T05:42:46;100931.78;;;14.96;57.24
38022;BME280;23832;43.216;27.946;2023-04-10T05:44:48;100934.63;;;14.94;57.26
38022;BME280;23832;43.216;27.946;2023-04-10T05:46:50;100939.16;;;15.00;56.93
38022;BME280;23832;43.216;27.946;2023-04-10T05:48:52;100936.06;;;14.97;56.96
38022;BME280;23832;43.216;27.946;2023-04-10T05:50:55;100943.00;;;14.98;56.84
38022;BME280;23832;43.216;27.946;2023-04-10T05:52:57;100937.50;;;14.99;56.79
38022;BME280;23832;43.216;27.946;2023-04-10T05:54:58;100933.88;;;15.07;56.36
38022;BME280;23832;43.216;27.946;2023-04-10T05:57:00;100933.38;;;14.90;56.41
38022;BME280;23832;43.216;27.946;2023-04-10T05:59:02;100936.81;;;14.84;56.84
38022;BME280;23832;43.216;27.946;2023-04-10T06:01:04;100940.97;;;14.93;56.66
38022;BME280;23832;43.216;27.946;2023-04-10T06:03:06;100932.19;;;14.93;56.96
38022;BME280;23832;43.216;27.946;2023-04-10T06:05:08;100941.09;;;14.85;56.90
38022;BME280;23832;43.216;27.946;2023-04-10T06:07:11;100936.28;;;15.30;56.00
38022;BME280;23832;43.216;27.946;2023-04-10T06:09:13;100934.34;;;15.11;56.04
38022;BME280;23832;43.216;27.946;2023-04-10T06:11:15;100934.81;;;15.27;55.45
38022;BME280;23832;43.216;27.946;2023-04-10T06:13:16;100937.50;;;14.93;56.15
38022;BME280;23832;43.216;27.946;2023-04-10T06:15:18;100945.09;;;15.02;56.17
38022;BME280;23832;43.216;27.946;2023-04-10T06:17:19;100932.44;;;15.39;55.89
38022;BME280;23832;43.216;27.946;2023-04-10T06:19:23;100944.59;;;15.20;55.73
38022;BME280;23832;43.216;27.946;2023-04-10T06:21:24;100946.50;;;15.33;55.78
38022;BME280;23832;43.216;27.946;2023-04-10T06:23:27;100945.13;;;15.44;55.13
38022;BME280;23832;43.216;27.946;2023-04-10T06:25:29;100953.34;;;15.49;54.96
38022;BME280;23832;43.216;27.946;2023-04-10T06:27:32;100956.50;;;15.72;54.49
38022;BME280;23832;43.216;27.946;2023-04-10T06:29:34;100959.66;;;15.89;54.29
38022;BME280;23832;43.216;27.946;2023-04-10T06:31:36;100971.56;;;16.00;54.45
38022;BME280;23832;43.216;27.946;2023-04-10T06:33:37;100960.31;;;16.04;53.48
38022;BME280;23832;43.216;27.946;2023-04-10T06:35:39;100968.34;;;16.24;52.70
38022;BME280;23832;43.216;27.946;2023-04-10T06:37:41;100970.78;;;16.19;52.50
38022;BME280;23832;43.216;27.946;2023-04-10T06:39:45;100969.16;;;16.18;52.82
38022;BME280;23832;43.216;27.946;2023-04-10T06:41:46;100977.69;;;16.07;52.39
38022;BME280;23832;43.216;27.946;2023-04-10T06:43:48;100972.00;;;16.10;52.28
38022;BME280;23832;43.216;27.946;2023-04-10T06:45:50;100979.22;;;16.36;51.94
38022;BME280;23832;43.216;27.946;2023-04-10T06:47:52;100973.50;;;16.59;50.98
38022;BME280;23832;43.216;27.946;2023-04-10T06:49:54;100965.31;;;16.67;51.04
38022;BME280;23832;43.216;27.946;2023-04-10T06:51:56;100960.63;;;16.82;50.85
38022;BME280;23832;43.216;27.946;2023-04-10T06:53:57;100968.41;;;16.97;50.44
38022;BME280;23832;43.216;27.946;2023-04-10T06:56:01;100972.84;;;17.29;49.56
38022;BME280;23832;43.216;27.946;2023-04-10T06:58:03;100970.84;;;17.05;50.09
38022;BME280;23832;43.216;27.946;2023-04-10T07:00:05;100970.84;;;17.12;49.80
38022;BME280;23832;43.216;27.946;2023-04-10T07:02:07;100982.91;;;17.27;49.27
38022;BME280;23832;43.216;27.946;2023-04-10T07:04:09;100981.03;;;17.41;48.87
38022;BME280;23832;43.216;27.946;2023-04-10T07:06:10;100978.41;;;17.35;48.99
38022;BME280;23832;43.216;27.946;2023-04-10T07:08:12;100975.09;;;17.33;48.98
38022;BME280;23832;43.216;27.946;2023-04-10T07:10:14;100975.25;;;17.51;48.68
38022;BME280;23832;43.216;27.946;2023-04-10T07:12:17;100975.38;;;17.69;48.31
38022;BME280;23832;43.216;27.946;2023-04-10T07:14:19;100964.13;;;17.74;48.33
38022;BME280;23832;43.216;27.946;2023-04-10T07:16:21;100968.88;;;18.10;47.92
38022;BME280;23832;43.216;27.946;2023-04-10T07:18:23;100965.78;;;18.44;47.35
38022;BME280;23832;43.216;27.946;2023-04-10T07:20:24;100972.31;;;18.49;47.30
38022;BME280;23832;43.216;27.946;2023-04-10T07:22:27;100972.91;;;18.82;46.53
38022;BME280;23832;43.216;27.946;2023-04-10T07:24:29;100969.47;;;19.00;46.23
38022;BME280;23832;43.216;27.946;2023-04-10T07:26:31;100975.41;;;19.20;46.04
38022;BME280;23832;43.216;27.946;2023-04-10T07:28:34;100967.63;;;19.19;46.03
38022;BME280;23832;43.216;27.946;2023-04-10T07:30:36;100973.13;;;19.24;46.15
38022;BME280;23832;43.216;27.946;2023-04-10T07:32:38;100967.63;;;19.37;46.07
38022;BME280;23832;43.216;27.946;2023-04-10T07:34:41;100975.38;;;19.82;45.26
38022;BME280;23832;43.216;27.946;2023-04-10T07:36:43;100972.22;;;19.85;44.82
38022;BME280;23832;43.216;27.946;2023-04-10T07:38:46;100970.81;;;20.12;44.29
38022;BME280;23832;43.216;27.946;2023-04-10T07:40:47;100967.59;;;20.76;43.54
38022;BME280;23832;43.216;27.946;2023-04-10T07:42:49;100962.50;;;21.33;42.49
38022;BME280;23832;43.216;27.946;2023-04-10T07:44:52;100963.53;;;21.43;42.49
38022;BME280;23832;43.216;27.946;2023-04-10T07:46:54;100970.88;;;21.48;42.40
38022;BME280;23832;43.216;27.946;2023-04-10T07:48:56;100964.34;;;21.09;42.45
38022;BME280;23832;43.216;27.946;2023-04-10T07:50:58;100955.47;;;21.20;42.34
38022;BME280;23832;43.216;27.946;2023-04-10T07:52:59;100962.97;;;21.06;42.48
38022;BME280;23832;43.216;27.946;2023-04-10T07:55:07;100959.22;;;21.19;42.34
38022;BME280;23832;43.216;27.946;2023-04-10T07:57:09;100955.16;;;21.05;42.46
38022;BME280;23832;43.216;27.946;2023-04-10T07:59:11;100952.84;;;20.85;42.38
38022;BME280;23832;43.216;27.946;2023-04-10T08:01:14;100952.25;;;20.71;42.62
38022;BME280;23832;43.216;27.946;2023-04-10T08:03:16;100938.38;;;20.51;42.40
38022;BME280;23832;43.216;27.946;2023-04-10T08:05:18;100947.09;;;20.16;42.85
38022;BME280;23832;43.216;27.946;2023-04-10T08:07:19;100944.34;;;19.93;42.91
38022;BME280;23832;43.216;27.946;2023-04-10T08:09:21;100940.03;;;19.62;43.73
38022;BME280;23832;43.216;27.946;2023-04-10T08:11:24;100942.47;;;19.63;43.89
38022;BME280;23832;43.216;27.946;2023-04-10T08:13:26;100935.78;;;19.72;43.83
38022;BME280;23832;43.216;27.946;2023-04-10T08:15:28;100943.56;;;19.00;44.38
38022;BME280;23832;43.216;27.946;2023-04-10T08:17:31;100936.06;;;19.09;44.23
38022;BME280;23832;43.216;27.946;2023-04-10T08:19:33;100932.81;;;19.62;44.25
38022;BME280;23832;43.216;27.946;2023-04-10T08:21:34;100928.78;;;19.53;44.17
38022;BME280;23832;43.216;27.946;2023-04-10T08:23:36;100923.56;;;19.76;44.22
38022;BME280;23832;43.216;27.946;2023-04-10T08:25:38;100930.59;;;20.19;43.73
38022;BME280;23832;43.216;27.946;2023-04-10T08:27:40;100937.22;;;20.17;43.27
38022;BME280;23832;43.216;27.946;2023-04-10T08:29:41;100929.41;;;20.15;43.71
38022;BME280;23832;43.216;27.946;2023-04-10T08:31:43;100928.75;;;19.90;43.90
38022;BME280;23832;43.216;27.946;2023-04-10T08:33:47;100927.69;;;19.61;44.38
38022;BME280;23832;43.216;27.946;2023-04-10T08:35:49;100919.72;;;19.72;44.55
38022;BME280;23832;43.216;27.946;2023-04-10T08:37:50;100925.06;;;19.72;44.78
38022;BME280;23832;43.216;27.946;2023-04-10T08:39:52;100927.69;;;19.61;45.21
38022;BME280;23832;43.216;27.946;2023-04-10T08:41:54;100924.41;;;19.40;45.51
38022;BME280;23832;43.216;27.946;2023-04-10T08:43:56;100925.69;;;19.56;45.71
38022;BME280;23832;43.216;27.946;2023-04-10T08:45:57;100915.78;;;20.05;44.84
38022;BME280;23832;43.216;27.946;2023-04-10T08:47:59;100920.75;;;20.01;44.92
38022;BME280;23832;43.216;27.946;2023-04-10T08:50:05;100909.47;;;19.99;44.84
38022;BME280;23832;43.216;27.946;2023-04-10T08:52:07;100911.00;;;20.07;44.69
38022;BME280;23832;43.216;27.946;2023-04-10T08:54:10;100910.59;;;19.92;45.05
38022;BME280;23832;43.216;27.946;2023-04-10T08:56:14;100905.41;;;19.97;45.09
38022;BME280;23832;43.216;27.946;2023-04-10T08:58:16;100906.69;;;20.06;45.08
38022;BME280;23832;43.216;27.946;2023-04-10T09:00:18;100903.47;;;20.27;44.87
38022;BME280;23832;43.216;27.946;2023-04-10T09:02:20;100899.72;;;20.05;45.95
38022;BME280;23832;43.216;27.946;2023-04-10T09:04:22;100903.97;;;20.36;45.52
38022;BME280;23832;43.216;27.946;2023-04-10T09:06:26;100900.16;;;20.44;45.36
38022;BME280;23832;43.216;27.946;2023-04-10T09:08:27;100901.28;;;19.94;46.48
38022;BME280;23832;43.216;27.946;2023-04-10T09:10:29;100894.47;;;19.98;48.14
38022;BME280;23832;43.216;27.946;2023-04-10T09:12:41;100897.31;;;19.85;48.09
38022;BME280;23832;43.216;27.946;2023-04-10T09:14:43;100883.06;;;19.61;48.35
38022;BME280;23832;43.216;27.946;2023-04-10T09:16:45;100879.13;;;19.27;48.78
38022;BME280;23832;43.216;27.946;2023-04-10T09:18:47;100881.56;;;19.28;48.84
38022;BME280;23832;43.216;27.946;2023-04-10T09:20:49;100888.47;;;19.36;54.95
38022;BME280;23832;43.216;27.946;2023-04-10T09:22:53;100877.25;;;19.46;53.84
38022;BME280;23832;43.216;27.946;2023-04-10T09:24:55;100875.97;;;19.48;51.84
38022;BME280;23832;43.216;27.946;2023-04-10T09:26:58;100873.91;;;19.50;50.45
38022;BME280;23832;43.216;27.946;2023-04-10T09:29:00;100873.22;;;19.07;50.57
38022;BME280;23832;43.216;27.946;2023-04-10T09:31:02;100870.28;;;19.26;50.61
38022;BME280;23832;43.216;27.946;2023-04-10T09:33:24;100862.72;;;19.42;50.12
38022;BME280;23832;43.216;27.946;2023-04-10T09:35:34;100864.38;;;19.54;49.76
38022;BME280;23832;43.216;27.946;2023-04-10T09:37:37;100861.03;;;19.89;49.25
38022;BME280;23832;43.216;27.946;2023-04-10T09:39:41;100860.66;;;20.39;48.33
38022;BME280;23832;43.216;27.946;2023-04-10T09:41:49;100860.88;;;20.37;48.28
38022;BME280;23832;43.216;27.946;2023-04-10T09:43:54;100865.44;;;20.25;48.11
38022;BME280;23832;43.216;27.946;2023-04-10T09:46:06;100859.78;;;20.03;48.58
38022;BME280;23832;43.216;27.946;2023-04-10T09:48:08;100863.88;;;19.64;48.73
38022;BME280;23832;43.216;27.946;2023-04-10T09:50:10;100860.13;;;19.35;49.58
38022;BME280;23832;43.216;27.946;2023-04-10T09:52:16;100855.53;;;19.54;49.22
38022;BME280;23832;43.216;27.946;2023-04-10T09:54:18;100848.31;;;19.24;49.42
38022;BME280;23832;43.216;27.946;2023-04-10T09:56:21;100856.16;;;19.56;49.24
38022;BME280;23832;43.216;27.946;2023-04-10T09:58:23;100857.97;;;19.74;48.95
38022;BME280;23832;43.216;27.946;2023-04-10T10:00:26;100854.72;;;19.53;49.31
38022;BME280;23832;43.216;27.946;2023-04-10T10:02:28;100855.78;;;19.52;49.15
38022;BME280;23832;43.216;27.946;2023-04-10T10:04:30;100852.53;;;19.14;49.63
38022;BME280;23832;43.216;27.946;2023-04-10T10:06:33;100851.97;;;18.93;50.50
38022;BME280;23832;43.216;27.946;2023-04-10T10:08:35;100845.81;;;19.11;50.23
38022;BME280;23832;43.216;27.946;2023-04-10T10:10:39;100848.97;;;19.38;49.75
38022;BME280;23832;43.216;27.946;2023-04-10T10:12:43;100846.78;;;18.80;50.42
38022;BME280;23832;43.216;27.946;2023-04-10T10:14:49;100844.63;;;18.89;50.99
38022;BME280;23832;43.216;27.946;2023-04-10T10:16:54;100843.06;;;19.48;49.90
38022;BME280;23832;43.216;27.946;2023-04-10T10:18:58;100831.16;;;19.14;50.48
38022;BME280;23832;43.216;27.946;2023-04-10T10:21:01;100840.31;;;18.88;51.46
38022;BME280;23832;43.216;27.946;2023-04-10T10:23:05;100840.47;;;18.93;51.67
38022;BME280;23832;43.216;27.946;2023-04-10T10:25:07;100837.56;;;18.94;51.83
38022;BME280;23832;43.216;27.946;2023-04-10T10:27:09;100838.19;;;18.78;52.21
38022;BME280;23832;43.216;27.946;2023-04-10T10:29:14;100825.34;;;18.43;53.10
38022;BME280;23832;43.216;27.946;2023-04-10T10:31:17;100832.31;;;18.44;53.31
38022;BME280;23832;43.216;27.946;2023-04-10T10:33:20;100829.19;;;18.73;52.76